Estación Meteorológica Peña el Pijo (Robertgarden) [ 07/21/19 02:53:47 CEST ]

Fecha Hora Presion(HPa) Temp (°C) Humedad % Rocio (°C) Viento ( m/s) Direccion Lluvia 1Hora(mm) Lluvia 24H(mm) LLuvia Total(mm)
2018-Nov-22 01:01:43 1005.900 6.8 85 4.4         150.73
2018-Nov-22 02:01:52 1005.600 6.1 85 3.8         150.73
2018-Nov-22 03:01:50 1005.900 5.2 86 3.0         150.73
2018-Nov-22 04:01:50 1005.900 4.6 87 2.6         150.73
2018-Nov-22 05:01:50 1005.600 4.4 87 2.4         150.73
2018-Nov-22 06:01:59 1005.900 4.6 88 2.8         150.73
2018-Nov-22 07:01:40 1006.000 4.8 88 3.0         150.73
2018-Nov-22 08:01:48 1006.200 4.9 88 3.1         150.73
2018-Nov-22 09:01:54 1006.400 5.5 89 3.8         150.73
2018-Nov-22 10:01:41 1006.800 6.4 88 4.6         150.73
2018-Nov-22 11:01:59 1006.700 7.9 88 6.0         150.73
2018-Nov-22 12:01:41 1006.200 9.3 84 6.7         150.73
2018-Nov-22 13:01:39 1005.100 10.6 79 7.1         150.73
2018-Nov-22 14:01:40 1005.000 11.3 69 5.8         150.73
2018-Nov-22 15:01:37 1004.500 12.2 66 6.0         150.73
2018-Nov-22 16:01:35 1004.400 11.3 68 5.6         150.73
2018-Nov-22 17:01:37 1004.200 9.9 72 5.1         150.73
2018-Nov-22 18:01:35 1004.900 8.9 76 4.8         150.73
2018-Nov-22 19:01:33 1004.800 7.9 79 4.5         150.73
2018-Nov-22 20:01:30 1005.300 7.6 83 4.9         150.73
2018-Nov-22 21:01:54 1004.900 7.8 83 5.1         150.73
2018-Nov-22 22:01:45 1004.000 8.0 83 5.3         150.73
2018-Nov-22 23:01:33 1004.100 7.8 83 5.1         150.73

Temperatura Máxima:12°    Temperatura Mínima:
Presión Máxima:1006.800 Hpa    Presión Mínima:1004.000 Hpa


Volver